sensor_id;sensor_type;location;lat;lon;timestamp;P1;durP1;ratioP1;P2;durP2;ratioP2
2538;SDS011;1280;49.760;9.664;2022-09-14T00:01:27;12.93;;;8.20;;
2538;SDS011;1280;49.760;9.664;2022-09-14T00:03:59;9.73;;;7.03;;
2538;SDS011;1280;49.760;9.664;2022-09-14T00:06:28;11.80;;;8.07;;
2538;SDS011;1280;49.760;9.664;2022-09-14T00:08:59;11.67;;;7.70;;
2538;SDS011;1280;49.760;9.664;2022-09-14T00:11:28;12.00;;;7.60;;
2538;SDS011;1280;49.760;9.664;2022-09-14T00:13:58;12.80;;;7.87;;
2538;SDS011;1280;49.760;9.664;2022-09-14T00:16:28;11.60;;;7.40;;
2538;SDS011;1280;49.760;9.664;2022-09-14T00:18:59;8.23;;;6.20;;
2538;SDS011;1280;49.760;9.664;2022-09-14T00:21:31;11.03;;;7.13;;
2538;SDS011;1280;49.760;9.664;2022-09-14T00:24:01;11.17;;;7.60;;
2538;SDS011;1280;49.760;9.664;2022-09-14T00:26:30;9.50;;;6.40;;
2538;SDS011;1280;49.760;9.664;2022-09-14T00:28:58;9.47;;;6.63;;
2538;SDS011;1280;49.760;9.664;2022-09-14T00:31:30;9.77;;;6.43;;
2538;SDS011;1280;49.760;9.664;2022-09-14T00:33:59;11.93;;;7.70;;
2538;SDS011;1280;49.760;9.664;2022-09-14T00:36:28;11.40;;;7.00;;
2538;SDS011;1280;49.760;9.664;2022-09-14T00:38:56;9.50;;;7.20;;
2538;SDS011;1280;49.760;9.664;2022-09-14T00:41:28;9.50;;;6.50;;
2538;SDS011;1280;49.760;9.664;2022-09-14T00:43:59;9.60;;;7.07;;
2538;SDS011;1280;49.760;9.664;2022-09-14T00:46:30;10.80;;;7.27;;
2538;SDS011;1280;49.760;9.664;2022-09-14T00:49:02;9.40;;;6.80;;
2538;SDS011;1280;49.760;9.664;2022-09-14T00:51:35;11.00;;;7.00;;
2538;SDS011;1280;49.760;9.664;2022-09-14T00:54:06;12.03;;;7.90;;
2538;SDS011;1280;49.760;9.664;2022-09-14T00:56:35;10.77;;;7.33;;
2538;SDS011;1280;49.760;9.664;2022-09-14T00:59:04;10.30;;;7.37;;
2538;SDS011;1280;49.760;9.664;2022-09-14T01:01:36;10.20;;;7.30;;
2538;SDS011;1280;49.760;9.664;2022-09-14T01:04:04;12.37;;;7.13;;
2538;SDS011;1280;49.760;9.664;2022-09-14T01:06:34;8.60;;;6.30;;
2538;SDS011;1280;49.760;9.664;2022-09-14T01:09:11;12.17;;;6.43;;
2538;SDS011;1280;49.760;9.664;2022-09-14T01:11:52;13.10;;;7.90;;
2538;SDS011;1280;49.760;9.664;2022-09-14T01:14:36;14.93;;;7.43;;
2538;SDS011;1280;49.760;9.664;2022-09-14T01:17:11;10.40;;;7.63;;
2538;SDS011;1280;49.760;9.664;2022-09-14T01:19:55;11.77;;;8.07;;
2538;SDS011;1280;49.760;9.664;2022-09-14T01:22:38;13.40;;;8.30;;
2538;SDS011;1280;49.760;9.664;2022-09-14T01:25:12;16.17;;;10.00;;
2538;SDS011;1280;49.760;9.664;2022-09-14T01:27:55;10.83;;;8.13;;
2538;SDS011;1280;49.760;9.664;2022-09-14T01:30:26;8.97;;;7.17;;
2538;SDS011;1280;49.760;9.664;2022-09-14T01:32:59;13.63;;;7.13;;
2538;SDS011;1280;49.760;9.664;2022-09-14T01:35:31;11.30;;;7.17;;
2538;SDS011;1280;49.760;9.664;2022-09-14T01:38:06;15.40;;;8.40;;
2538;SDS011;1280;49.760;9.664;2022-09-14T01:40:38;14.10;;;8.70;;
2538;SDS011;1280;49.760;9.664;2022-09-14T01:43:10;12.27;;;8.50;;
2538;SDS011;1280;49.760;9.664;2022-09-14T01:45:45;16.10;;;8.90;;
2538;SDS011;1280;49.760;9.664;2022-09-14T01:48:17;12.93;;;9.00;;
2538;SDS011;1280;49.760;9.664;2022-09-14T01:50:50;12.77;;;8.80;;
2538;SDS011;1280;49.760;9.664;2022-09-14T01:53:23;14.03;;;8.43;;
2538;SDS011;1280;49.760;9.664;2022-09-14T01:55:57;14.17;;;8.47;;
2538;SDS011;1280;49.760;9.664;2022-09-14T01:58:30;13.70;;;8.03;;
2538;SDS011;1280;49.760;9.664;2022-09-14T02:01:03;14.73;;;8.10;;
2538;SDS011;1280;49.760;9.664;2022-09-14T02:03:36;10.67;;;7.50;;
2538;SDS011;1280;49.760;9.664;2022-09-14T02:06:10;13.50;;;8.77;;
2538;SDS011;1280;49.760;9.664;2022-09-14T02:08:42;14.90;;;10.27;;
2538;SDS011;1280;49.760;9.664;2022-09-14T02:11:10;12.73;;;7.87;;
2538;SDS011;1280;49.760;9.664;2022-09-14T02:13:40;11.57;;;8.47;;
2538;SDS011;1280;49.760;9.664;2022-09-14T02:16:08;11.70;;;7.80;;
2538;SDS011;1280;49.760;9.664;2022-09-14T02:18:37;11.33;;;7.80;;
2538;SDS011;1280;49.760;9.664;2022-09-14T02:21:06;11.47;;;8.70;;
2538;SDS011;1280;49.760;9.664;2022-09-14T02:23:38;11.37;;;8.40;;
2538;SDS011;1280;49.760;9.664;2022-09-14T02:26:06;11.33;;;7.60;;
2538;SDS011;1280;49.760;9.664;2022-09-14T02:28:34;13.67;;;8.97;;
2538;SDS011;1280;49.760;9.664;2022-09-14T02:31:05;11.10;;;8.33;;
2538;SDS011;1280;49.760;9.664;2022-09-14T02:33:44;14.10;;;8.90;;
2538;SDS011;1280;49.760;9.664;2022-09-14T02:36:20;13.80;;;9.10;;
2538;SDS011;1280;49.760;9.664;2022-09-14T02:38:55;13.10;;;8.80;;
2538;SDS011;1280;49.760;9.664;2022-09-14T02:41:30;13.17;;;9.27;;
2538;SDS011;1280;49.760;9.664;2022-09-14T02:44:07;14.03;;;8.87;;
2538;SDS011;1280;49.760;9.664;2022-09-14T02:46:46;13.80;;;9.13;;
2538;SDS011;1280;49.760;9.664;2022-09-14T02:49:28;14.70;;;9.77;;
2538;SDS011;1280;49.760;9.664;2022-09-14T02:52:05;15.47;;;10.27;;
2538;SDS011;1280;49.760;9.664;2022-09-14T02:54:41;13.03;;;9.90;;
2538;SDS011;1280;49.760;9.664;2022-09-14T02:57:14;16.00;;;9.67;;
2538;SDS011;1280;49.760;9.664;2022-09-14T02:59:42;12.50;;;9.80;;
2538;SDS011;1280;49.760;9.664;2022-09-14T03:02:11;16.83;;;10.27;;
2538;SDS011;1280;49.760;9.664;2022-09-14T03:04:40;15.53;;;10.60;;
2538;SDS011;1280;49.760;9.664;2022-09-14T03:07:08;14.30;;;9.27;;
2538;SDS011;1280;49.760;9.664;2022-09-14T03:09:36;15.80;;;9.60;;
2538;SDS011;1280;49.760;9.664;2022-09-14T03:12:04;12.50;;;9.70;;
2538;SDS011;1280;49.760;9.664;2022-09-14T03:14:32;14.70;;;10.77;;
2538;SDS011;1280;49.760;9.664;2022-09-14T03:17:00;16.83;;;11.30;;
2538;SDS011;1280;49.760;9.664;2022-09-14T03:19:29;20.63;;;13.70;;
2538;SDS011;1280;49.760;9.664;2022-09-14T03:21:57;19.53;;;13.90;;
2538;SDS011;1280;49.760;9.664;2022-09-14T03:24:25;19.53;;;13.43;;
2538;SDS011;1280;49.760;9.664;2022-09-14T03:26:53;18.23;;;13.93;;
2538;SDS011;1280;49.760;9.664;2022-09-14T03:29:21;19.37;;;12.70;;
2538;SDS011;1280;49.760;9.664;2022-09-14T03:31:49;19.00;;;12.30;;
2538;SDS011;1280;49.760;9.664;2022-09-14T03:34:17;23.43;;;13.60;;
2538;SDS011;1280;49.760;9.664;2022-09-14T03:36:46;19.07;;;13.80;;
2538;SDS011;1280;49.760;9.664;2022-09-14T03:39:14;17.50;;;12.70;;
2538;SDS011;1280;49.760;9.664;2022-09-14T03:41:42;18.83;;;13.30;;
2538;SDS011;1280;49.760;9.664;2022-09-14T03:44:10;20.17;;;14.57;;
2538;SDS011;1280;49.760;9.664;2022-09-14T03:46:37;27.70;;;15.10;;
2538;SDS011;1280;49.760;9.664;2022-09-14T03:49:06;17.97;;;13.50;;
2538;SDS011;1280;49.760;9.664;2022-09-14T03:51:33;23.57;;;13.90;;
2538;SDS011;1280;49.760;9.664;2022-09-14T03:54:03;19.53;;;13.27;;
2538;SDS011;1280;49.760;9.664;2022-09-14T03:56:31;18.93;;;13.00;;
2538;SDS011;1280;49.760;9.664;2022-09-14T03:58:59;20.80;;;14.10;;
2538;SDS011;1280;49.760;9.664;2022-09-14T04:01:26;19.07;;;13.90;;
2538;SDS011;1280;49.760;9.664;2022-09-14T04:03:54;21.97;;;13.70;;
2538;SDS011;1280;49.760;9.664;2022-09-14T04:06:22;19.27;;;12.50;;
2538;SDS011;1280;49.760;9.664;2022-09-14T04:08:51;21.07;;;14.90;;
2538;SDS011;1280;49.760;9.664;2022-09-14T04:11:23;21.43;;;14.27;;
2538;SDS011;1280;49.760;9.664;2022-09-14T04:13:51;21.27;;;14.73;;
2538;SDS011;1280;49.760;9.664;2022-09-14T04:16:19;21.57;;;14.83;;
2538;SDS011;1280;49.760;9.664;2022-09-14T04:18:48;23.00;;;16.07;;
2538;SDS011;1280;49.760;9.664;2022-09-14T04:21:17;20.00;;;14.13;;
2538;SDS011;1280;49.760;9.664;2022-09-14T04:23:47;21.07;;;14.10;;
2538;SDS011;1280;49.760;9.664;2022-09-14T04:26:36;17.07;;;13.37;;
2538;SDS011;1280;49.760;9.664;2022-09-14T04:29:04;20.10;;;13.27;;
2538;SDS011;1280;49.760;9.664;2022-09-14T04:31:33;18.90;;;13.07;;
2538;SDS011;1280;49.760;9.664;2022-09-14T04:34:01;19.47;;;14.00;;
2538;SDS011;1280;49.760;9.664;2022-09-14T04:36:29;19.60;;;14.10;;
2538;SDS011;1280;49.760;9.664;2022-09-14T04:38:58;21.77;;;14.80;;
2538;SDS011;1280;49.760;9.664;2022-09-14T04:41:27;21.30;;;14.77;;
2538;SDS011;1280;49.760;9.664;2022-09-14T04:43:58;19.77;;;15.40;;
2538;SDS011;1280;49.760;9.664;2022-09-14T04:46:26;20.60;;;14.53;;
2538;SDS011;1280;49.760;9.664;2022-09-14T04:48:56;19.50;;;13.40;;
2538;SDS011;1280;49.760;9.664;2022-09-14T04:51:25;21.47;;;13.70;;
2538;SDS011;1280;49.760;9.664;2022-09-14T04:53:55;19.40;;;14.07;;
2538;SDS011;1280;49.760;9.664;2022-09-14T04:56:24;17.33;;;12.83;;
2538;SDS011;1280;49.760;9.664;2022-09-14T04:58:53;20.00;;;14.07;;
2538;SDS011;1280;49.760;9.664;2022-09-14T05:01:26;24.00;;;14.10;;
2538;SDS011;1280;49.760;9.664;2022-09-14T05:03:55;20.67;;;13.20;;
2538;SDS011;1280;49.760;9.664;2022-09-14T05:06:24;22.40;;;13.00;;
2538;SDS011;1280;49.760;9.664;2022-09-14T05:08:54;19.30;;;13.10;;
2538;SDS011;1280;49.760;9.664;2022-09-14T05:11:23;17.57;;;11.43;;
2538;SDS011;1280;49.760;9.664;2022-09-14T05:13:53;19.93;;;11.50;;
2538;SDS011;1280;49.760;9.664;2022-09-14T05:16:22;19.30;;;12.23;;
2538;SDS011;1280;49.760;9.664;2022-09-14T05:18:53;18.23;;;11.83;;
2538;SDS011;1280;49.760;9.664;2022-09-14T05:21:22;17.47;;;11.57;;
2538;SDS011;1280;49.760;9.664;2022-09-14T05:23:54;20.20;;;10.90;;
2538;SDS011;1280;49.760;9.664;2022-09-14T05:26:23;17.73;;;11.00;;
2538;SDS011;1280;49.760;9.664;2022-09-14T05:28:52;19.33;;;10.93;;
2538;SDS011;1280;49.760;9.664;2022-09-14T05:31:22;19.20;;;11.60;;
2538;SDS011;1280;49.760;9.664;2022-09-14T05:33:52;16.20;;;10.87;;
2538;SDS011;1280;49.760;9.664;2022-09-14T05:36:20;16.67;;;11.17;;
2538;SDS011;1280;49.760;9.664;2022-09-14T05:38:49;15.37;;;10.50;;
2538;SDS011;1280;49.760;9.664;2022-09-14T05:41:17;21.83;;;12.17;;
2538;SDS011;1280;49.760;9.664;2022-09-14T05:43:45;14.10;;;10.07;;
2538;SDS011;1280;49.760;9.664;2022-09-14T05:46:14;18.43;;;12.80;;
2538;SDS011;1280;49.760;9.664;2022-09-14T05:48:46;17.73;;;12.70;;
2538;SDS011;1280;49.760;9.664;2022-09-14T05:51:17;16.60;;;11.90;;
2538;SDS011;1280;49.760;9.664;2022-09-14T05:53:46;19.77;;;13.13;;
2538;SDS011;1280;49.760;9.664;2022-09-14T05:56:15;17.70;;;12.60;;
2538;SDS011;1280;49.760;9.664;2022-09-14T05:58:45;17.07;;;11.93;;
2538;SDS011;1280;49.760;9.664;2022-09-14T06:01:14;17.60;;;11.20;;
2538;SDS011;1280;49.760;9.664;2022-09-14T06:03:43;18.77;;;12.63;;
2538;SDS011;1280;49.760;9.664;2022-09-14T06:06:13;17.40;;;12.90;;
2538;SDS011;1280;49.760;9.664;2022-09-14T06:08:44;17.23;;;11.33;;
2538;SDS011;1280;49.760;9.664;2022-09-14T06:11:15;18.80;;;12.07;;
2538;SDS011;1280;49.760;9.664;2022-09-14T06:13:45;18.30;;;11.87;;
2538;SDS011;1280;49.760;9.664;2022-09-14T06:16:16;14.57;;;10.80;;
2538;SDS011;1280;49.760;9.664;2022-09-14T06:18:45;17.70;;;12.03;;
2538;SDS011;1280;49.760;9.664;2022-09-14T06:21:15;19.13;;;11.20;;
2538;SDS011;1280;49.760;9.664;2022-09-14T06:23:46;18.03;;;10.67;;
2538;SDS011;1280;49.760;9.664;2022-09-14T06:26:15;16.20;;;12.40;;
2538;SDS011;1280;49.760;9.664;2022-09-14T06:28:43;15.83;;;11.60;;
2538;SDS011;1280;49.760;9.664;2022-09-14T06:31:11;18.40;;;12.17;;
2538;SDS011;1280;49.760;9.664;2022-09-14T06:33:41;20.60;;;12.07;;
2538;SDS011;1280;49.760;9.664;2022-09-14T06:36:11;14.13;;;11.70;;
2538;SDS011;1280;49.760;9.664;2022-09-14T06:38:42;20.40;;;12.50;;
2538;SDS011;1280;49.760;9.664;2022-09-14T06:41:11;16.13;;;11.40;;
2538;SDS011;1280;49.760;9.664;2022-09-14T06:43:40;13.97;;;10.30;;
2538;SDS011;1280;49.760;9.664;2022-09-14T06:46:10;15.70;;;10.83;;
2538;SDS011;1280;49.760;9.664;2022-09-14T06:48:40;18.70;;;12.03;;
2538;SDS011;1280;49.760;9.664;2022-09-14T06:51:11;18.30;;;12.70;;
2538;SDS011;1280;49.760;9.664;2022-09-14T06:53:42;16.33;;;11.90;;
2538;SDS011;1280;49.760;9.664;2022-09-14T06:56:11;15.83;;;11.73;;
2538;SDS011;1280;49.760;9.664;2022-09-14T06:58:40;19.27;;;12.43;;
2538;SDS011;1280;49.760;9.664;2022-09-14T07:01:09;18.67;;;11.97;;
2538;SDS011;1280;49.760;9.664;2022-09-14T07:03:38;18.73;;;11.40;;
2538;SDS011;1280;49.760;9.664;2022-09-14T07:06:06;18.13;;;12.10;;
2538;SDS011;1280;49.760;9.664;2022-09-14T07:08:36;16.90;;;12.23;;
2538;SDS011;1280;49.760;9.664;2022-09-14T07:11:07;18.27;;;11.40;;
2538;SDS011;1280;49.760;9.664;2022-09-14T07:13:36;17.53;;;12.23;;
2538;SDS011;1280;49.760;9.664;2022-09-14T07:16:05;16.13;;;12.13;;
2538;SDS011;1280;49.760;9.664;2022-09-14T07:18:33;20.57;;;12.23;;
2538;SDS011;1280;49.760;9.664;2022-09-14T07:21:01;17.53;;;11.63;;
2538;SDS011;1280;49.760;9.664;2022-09-14T07:23:31;17.73;;;12.87;;
2538;SDS011;1280;49.760;9.664;2022-09-14T07:26:00;16.80;;;11.40;;
2538;SDS011;1280;49.760;9.664;2022-09-14T07:28:31;21.33;;;12.77;;
2538;SDS011;1280;49.760;9.664;2022-09-14T07:30:59;19.50;;;11.27;;
2538;SDS011;1280;49.760;9.664;2022-09-14T07:33:28;20.37;;;12.17;;
2538;SDS011;1280;49.760;9.664;2022-09-14T07:36:03;17.00;;;12.23;;
2538;SDS011;1280;49.760;9.664;2022-09-14T07:38:31;21.63;;;15.20;;
2538;SDS011;1280;49.760;9.664;2022-09-14T07:41:17;16.97;;;12.80;;
2538;SDS011;1280;49.760;9.664;2022-09-14T07:43:48;23.10;;;15.00;;
2538;SDS011;1280;49.760;9.664;2022-09-14T07:46:16;18.77;;;14.37;;
2538;SDS011;1280;49.760;9.664;2022-09-14T07:48:45;22.23;;;14.77;;
2538;SDS011;1280;49.760;9.664;2022-09-14T07:51:14;18.93;;;14.07;;
2538;SDS011;1280;49.760;9.664;2022-09-14T07:53:43;18.63;;;13.57;;
2538;SDS011;1280;49.760;9.664;2022-09-14T07:56:11;19.07;;;13.60;;
2538;SDS011;1280;49.760;9.664;2022-09-14T07:58:42;17.93;;;12.90;;
2538;SDS011;1280;49.760;9.664;2022-09-14T08:01:12;21.50;;;15.07;;
2538;SDS011;1280;49.760;9.664;2022-09-14T08:03:43;22.60;;;13.10;;
2538;SDS011;1280;49.760;9.664;2022-09-14T08:06:15;17.83;;;13.63;;
2538;SDS011;1280;49.760;9.664;2022-09-14T08:08:44;16.83;;;11.90;;
2538;SDS011;1280;49.760;9.664;2022-09-14T08:11:14;20.80;;;12.63;;
2538;SDS011;1280;49.760;9.664;2022-09-14T08:13:45;18.83;;;11.90;;
2538;SDS011;1280;49.760;9.664;2022-09-14T08:16:17;19.33;;;11.00;;
2538;SDS011;1280;49.760;9.664;2022-09-14T08:18:46;16.50;;;10.90;;
2538;SDS011;1280;49.760;9.664;2022-09-14T08:21:15;17.00;;;11.70;;
2538;SDS011;1280;49.760;9.664;2022-09-14T08:23:43;15.67;;;10.17;;
2538;SDS011;1280;49.760;9.664;2022-09-14T08:26:12;13.50;;;9.83;;
2538;SDS011;1280;49.760;9.664;2022-09-14T08:28:41;12.80;;;9.27;;
2538;SDS011;1280;49.760;9.664;2022-09-14T08:31:09;13.03;;;9.40;;
2538;SDS011;1280;49.760;9.664;2022-09-14T08:33:40;14.37;;;10.30;;
2538;SDS011;1280;49.760;9.664;2022-09-14T08:36:10;14.43;;;8.23;;
2538;SDS011;1280;49.760;9.664;2022-09-14T08:38:39;13.37;;;8.40;;
2538;SDS011;1280;49.760;9.664;2022-09-14T08:41:10;13.87;;;9.63;;
2538;SDS011;1280;49.760;9.664;2022-09-14T08:43:44;12.70;;;9.10;;
2538;SDS011;1280;49.760;9.664;2022-09-14T08:46:14;13.57;;;9.53;;
2538;SDS011;1280;49.760;9.664;2022-09-14T08:48:53;12.60;;;8.97;;
2538;SDS011;1280;49.760;9.664;2022-09-14T08:51:21;13.20;;;8.50;;
2538;SDS011;1280;49.760;9.664;2022-09-14T08:53:49;12.07;;;8.27;;
2538;SDS011;1280;49.760;9.664;2022-09-14T08:56:20;12.50;;;8.87;;
2538;SDS011;1280;49.760;9.664;2022-09-14T08:58:53;11.93;;;8.20;;
2538;SDS011;1280;49.760;9.664;2022-09-14T09:01:37;11.07;;;8.43;;
2538;SDS011;1280;49.760;9.664;2022-09-14T09:04:14;10.80;;;7.63;;
2538;SDS011;1280;49.760;9.664;2022-09-14T09:06:57;12.23;;;7.73;;
2538;SDS011;1280;49.760;9.664;2022-09-14T09:09:33;11.23;;;7.43;;
2538;SDS011;1280;49.760;9.664;2022-09-14T09:12:11;10.13;;;7.87;;
2538;SDS011;1280;49.760;9.664;2022-09-14T09:14:42;12.20;;;8.10;;
2538;SDS011;1280;49.760;9.664;2022-09-14T09:17:14;11.63;;;7.93;;
2538;SDS011;1280;49.760;9.664;2022-09-14T09:19:48;13.17;;;8.17;;
2538;SDS011;1280;49.760;9.664;2022-09-14T09:22:23;10.27;;;7.17;;
2538;SDS011;1280;49.760;9.664;2022-09-14T09:24:55;10.13;;;7.80;;
2538;SDS011;1280;49.760;9.664;2022-09-14T09:27:24;11.70;;;7.47;;
2538;SDS011;1280;49.760;9.664;2022-09-14T09:29:53;10.70;;;7.40;;
2538;SDS011;1280;49.760;9.664;2022-09-14T09:32:25;13.07;;;8.47;;
2538;SDS011;1280;49.760;9.664;2022-09-14T09:35:14;12.17;;;7.50;;
2538;SDS011;1280;49.760;9.664;2022-09-14T09:37:58;10.63;;;8.23;;
2538;SDS011;1280;49.760;9.664;2022-09-14T09:40:29;9.90;;;6.70;;
2538;SDS011;1280;49.760;9.664;2022-09-14T09:43:05;8.67;;;6.80;;
2538;SDS011;1280;49.760;9.664;2022-09-14T09:45:45;11.97;;;8.10;;
2538;SDS011;1280;49.760;9.664;2022-09-14T09:48:21;10.00;;;7.17;;
2538;SDS011;1280;49.760;9.664;2022-09-14T09:50:56;9.20;;;7.13;;
2538;SDS011;1280;49.760;9.664;2022-09-14T09:53:31;7.93;;;5.40;;
2538;SDS011;1280;49.760;9.664;2022-09-14T09:56:00;9.90;;;6.97;;
2538;SDS011;1280;49.760;9.664;2022-09-14T09:58:30;7.77;;;5.80;;
2538;SDS011;1280;49.760;9.664;2022-09-14T10:01:01;8.30;;;5.70;;
2538;SDS011;1280;49.760;9.664;2022-09-14T10:03:38;7.23;;;5.10;;
2538;SDS011;1280;49.760;9.664;2022-09-14T10:06:09;6.87;;;5.23;;
2538;SDS011;1280;49.760;9.664;2022-09-14T10:08:40;8.00;;;5.20;;
2538;SDS011;1280;49.760;9.664;2022-09-14T10:11:26;7.80;;;4.87;;
2538;SDS011;1280;49.760;9.664;2022-09-14T10:13:57;7.57;;;4.93;;
2538;SDS011;1280;49.760;9.664;2022-09-14T10:16:27;8.37;;;4.80;;
2538;SDS011;1280;49.760;9.664;2022-09-14T10:19:00;7.83;;;4.73;;
2538;SDS011;1280;49.760;9.664;2022-09-14T10:21:30;8.17;;;5.20;;
2538;SDS011;1280;49.760;9.664;2022-09-14T10:24:03;9.10;;;5.37;;
2538;SDS011;1280;49.760;9.664;2022-09-14T10:26:34;8.30;;;5.43;;
2538;SDS011;1280;49.760;9.664;2022-09-14T10:29:25;8.10;;;5.70;;
2538;SDS011;1280;49.760;9.664;2022-09-14T10:32:02;8.80;;;5.70;;
2538;SDS011;1280;49.760;9.664;2022-09-14T10:34:37;7.63;;;5.80;;
2538;SDS011;1280;49.760;9.664;2022-09-14T10:37:10;7.93;;;5.93;;
2538;SDS011;1280;49.760;9.664;2022-09-14T10:39:51;9.13;;;5.73;;
2538;SDS011;1280;49.760;9.664;2022-09-14T10:42:33;10.10;;;6.20;;
2538;SDS011;1280;49.760;9.664;2022-09-14T10:45:09;8.00;;;6.27;;
2538;SDS011;1280;49.760;9.664;2022-09-14T10:47:49;10.23;;;6.73;;
2538;SDS011;1280;49.760;9.664;2022-09-14T10:50:34;11.30;;;7.70;;
2538;SDS011;1280;49.760;9.664;2022-09-14T10:53:16;10.47;;;8.77;;
2538;SDS011;1280;49.760;9.664;2022-09-14T10:55:56;11.70;;;8.07;;
2538;SDS011;1280;49.760;9.664;2022-09-14T10:58:35;11.07;;;9.20;;
2538;SDS011;1280;49.760;9.664;2022-09-14T11:01:17;10.73;;;8.50;;
2538;SDS011;1280;49.760;9.664;2022-09-14T11:04:04;10.10;;;8.67;;
2538;SDS011;1280;49.760;9.664;2022-09-14T11:06:45;10.80;;;9.33;;
2538;SDS011;1280;49.760;9.664;2022-09-14T11:09:22;12.50;;;10.30;;
2538;SDS011;1280;49.760;9.664;2022-09-14T11:12:01;12.50;;;10.07;;
2538;SDS011;1280;49.760;9.664;2022-09-14T11:14:43;13.70;;;10.50;;
2538;SDS011;1280;49.760;9.664;2022-09-14T11:17:35;13.20;;;10.40;;
2538;SDS011;1280;49.760;9.664;2022-09-14T11:20:18;12.70;;;10.90;;
2538;SDS011;1280;49.760;9.664;2022-09-14T11:23:00;12.20;;;10.37;;
2538;SDS011;1280;49.760;9.664;2022-09-14T11:25:41;12.20;;;10.33;;
2538;SDS011;1280;49.760;9.664;2022-09-14T11:28:12;13.10;;;10.90;;
2538;SDS011;1280;49.760;9.664;2022-09-14T11:30:45;13.90;;;10.93;;
2538;SDS011;1280;49.760;9.664;2022-09-14T11:33:17;15.83;;;10.70;;
2538;SDS011;1280;49.760;9.664;2022-09-14T11:35:57;11.30;;;10.10;;
2538;SDS011;1280;49.760;9.664;2022-09-14T11:38:33;12.00;;;10.53;;
2538;SDS011;1280;49.760;9.664;2022-09-14T11:41:06;13.60;;;11.40;;
2538;SDS011;1280;49.760;9.664;2022-09-14T11:43:41;15.03;;;11.90;;
2538;SDS011;1280;49.760;9.664;2022-09-14T11:46:15;13.93;;;12.00;;
2538;SDS011;1280;49.760;9.664;2022-09-14T11:48:48;15.13;;;12.77;;
2538;SDS011;1280;49.760;9.664;2022-09-14T11:51:21;14.60;;;12.47;;
2538;SDS011;1280;49.760;9.664;2022-09-14T11:53:52;15.33;;;12.83;;
2538;SDS011;1280;49.760;9.664;2022-09-14T11:56:23;14.90;;;12.50;;
2538;SDS011;1280;49.760;9.664;2022-09-14T11:58:54;13.37;;;11.20;;
2538;SDS011;1280;49.760;9.664;2022-09-14T12:01:25;13.50;;;12.10;;
2538;SDS011;1280;49.760;9.664;2022-09-14T12:06:51;12.67;;;11.30;;
2538;SDS011;1280;49.760;9.664;2022-09-14T12:09:30;13.93;;;12.53;;
2538;SDS011;1280;49.760;9.664;2022-09-14T12:12:22;14.53;;;11.60;;
2538;SDS011;1280;49.760;9.664;2022-09-14T12:15:02;14.20;;;11.17;;
2538;SDS011;1280;49.760;9.664;2022-09-14T12:17:45;16.40;;;11.17;;
2538;SDS011;1280;49.760;9.664;2022-09-14T12:29:03;13.60;;;10.90;;
2538;SDS011;1280;49.760;9.664;2022-09-14T12:32:00;15.70;;;12.37;;
2538;SDS011;1280;49.760;9.664;2022-09-14T12:34:30;14.03;;;11.80;;
2538;SDS011;1280;49.760;9.664;2022-09-14T12:37:01;15.37;;;11.40;;
2538;SDS011;1280;49.760;9.664;2022-09-14T12:43:09;11.80;;;10.23;;
2538;SDS011;1280;49.760;9.664;2022-09-14T12:46:33;13.77;;;11.27;;
2538;SDS011;1280;49.760;9.664;2022-09-14T12:52:11;14.73;;;11.97;;
2538;SDS011;1280;49.760;9.664;2022-09-14T12:55:00;14.93;;;10.93;;
2538;SDS011;1280;49.760;9.664;2022-09-14T12:57:43;12.70;;;10.83;;
2538;SDS011;1280;49.760;9.664;2022-09-14T13:00:20;11.20;;;9.97;;
2538;SDS011;1280;49.760;9.664;2022-09-14T13:02:57;14.40;;;11.40;;
2538;SDS011;1280;49.760;9.664;2022-09-14T13:05:41;16.63;;;10.70;;
2538;SDS011;1280;49.760;9.664;2022-09-14T13:08:11;14.33;;;11.40;;
2538;SDS011;1280;49.760;9.664;2022-09-14T13:10:44;13.10;;;11.30;;
2538;SDS011;1280;49.760;9.664;2022-09-14T13:13:15;14.87;;;10.37;;
2538;SDS011;1280;49.760;9.664;2022-09-14T13:15:52;13.17;;;10.60;;
2538;SDS011;1280;49.760;9.664;2022-09-14T13:18:33;14.17;;;10.30;;
2538;SDS011;1280;49.760;9.664;2022-09-14T13:21:11;13.00;;;10.30;;
2538;SDS011;1280;49.760;9.664;2022-09-14T13:23:45;14.50;;;11.83;;
2538;SDS011;1280;49.760;9.664;2022-09-14T13:26:15;14.57;;;9.73;;
2538;SDS011;1280;49.760;9.664;2022-09-14T13:28:46;12.30;;;10.60;;
2538;SDS011;1280;49.760;9.664;2022-09-14T13:31:16;12.73;;;10.30;;
2538;SDS011;1280;49.760;9.664;2022-09-14T13:33:49;12.60;;;10.03;;
2538;SDS011;1280;49.760;9.664;2022-09-14T13:36:19;13.40;;;10.70;;
2538;SDS011;1280;49.760;9.664;2022-09-14T13:38:50;16.03;;;10.33;;
2538;SDS011;1280;49.760;9.664;2022-09-14T13:41:19;15.37;;;11.23;;
2538;SDS011;1280;49.760;9.664;2022-09-14T13:43:49;13.37;;;10.93;;
2538;SDS011;1280;49.760;9.664;2022-09-14T13:46:20;16.40;;;11.47;;
2538;SDS011;1280;49.760;9.664;2022-09-14T13:48:50;15.13;;;10.20;;
2538;SDS011;1280;49.760;9.664;2022-09-14T13:51:21;15.50;;;12.30;;
2538;SDS011;1280;49.760;9.664;2022-09-14T13:53:52;15.60;;;10.90;;
2538;SDS011;1280;49.760;9.664;2022-09-14T13:56:25;16.67;;;11.80;;
2538;SDS011;1280;49.760;9.664;2022-09-14T13:59:16;14.50;;;10.97;;
2538;SDS011;1280;49.760;9.664;2022-09-14T14:01:50;13.50;;;11.20;;
2538;SDS011;1280;49.760;9.664;2022-09-14T14:04:29;14.93;;;11.50;;
2538;SDS011;1280;49.760;9.664;2022-09-14T14:07:06;16.50;;;12.83;;
2538;SDS011;1280;49.760;9.664;2022-09-14T14:09:43;17.30;;;13.53;;
2538;SDS011;1280;49.760;9.664;2022-09-14T14:12:20;16.87;;;12.00;;
2538;SDS011;1280;49.760;9.664;2022-09-14T14:14:51;15.00;;;11.00;;
2538;SDS011;1280;49.760;9.664;2022-09-14T14:17:21;17.63;;;10.90;;
2538;SDS011;1280;49.760;9.664;2022-09-14T14:19:53;22.13;;;11.80;;
2538;SDS011;1280;49.760;9.664;2022-09-14T14:22:23;14.60;;;10.17;;
2538;SDS011;1280;49.760;9.664;2022-09-14T14:24:53;14.43;;;12.33;;
2538;SDS011;1280;49.760;9.664;2022-09-14T14:27:40;19.43;;;11.97;;
2538;SDS011;1280;49.760;9.664;2022-09-14T14:30:11;14.60;;;11.57;;
2538;SDS011;1280;49.760;9.664;2022-09-14T14:32:41;17.20;;;11.80;;
2538;SDS011;1280;49.760;9.664;2022-09-14T14:35:14;16.00;;;11.53;;
2538;SDS011;1280;49.760;9.664;2022-09-14T14:37:45;20.10;;;12.73;;
2538;SDS011;1280;49.760;9.664;2022-09-14T14:40:14;15.40;;;10.93;;
2538;SDS011;1280;49.760;9.664;2022-09-14T14:42:43;15.03;;;10.10;;
2538;SDS011;1280;49.760;9.664;2022-09-14T14:45:12;16.87;;;11.80;;
2538;SDS011;1280;49.760;9.664;2022-09-14T14:47:44;18.60;;;12.43;;
2538;SDS011;1280;49.760;9.664;2022-09-14T14:50:14;16.43;;;11.90;;
2538;SDS011;1280;49.760;9.664;2022-09-14T14:52:44;15.83;;;12.47;;
2538;SDS011;1280;49.760;9.664;2022-09-14T14:55:11;17.83;;;13.40;;
2538;SDS011;1280;49.760;9.664;2022-09-14T14:57:40;18.07;;;15.90;;
2538;SDS011;1280;49.760;9.664;2022-09-14T15:00:11;22.57;;;18.30;;
2538;SDS011;1280;49.760;9.664;2022-09-14T15:02:41;19.23;;;17.17;;
2538;SDS011;1280;49.760;9.664;2022-09-14T15:05:09;17.73;;;15.67;;
2538;SDS011;1280;49.760;9.664;2022-09-14T15:07:39;22.73;;;13.80;;
2538;SDS011;1280;49.760;9.664;2022-09-14T15:10:07;16.67;;;11.70;;
2538;SDS011;1280;49.760;9.664;2022-09-14T15:12:40;14.57;;;10.17;;
2538;SDS011;1280;49.760;9.664;2022-09-14T15:15:10;11.33;;;7.77;;
2538;SDS011;1280;49.760;9.664;2022-09-14T15:17:39;9.63;;;5.43;;
2538;SDS011;1280;49.760;9.664;2022-09-14T15:20:08;8.30;;;4.40;;
2538;SDS011;1280;49.760;9.664;2022-09-14T15:22:36;8.50;;;4.20;;
2538;SDS011;1280;49.760;9.664;2022-09-14T15:25:08;5.80;;;3.70;;
2538;SDS011;1280;49.760;9.664;2022-09-14T15:27:37;8.53;;;3.63;;
2538;SDS011;1280;49.760;9.664;2022-09-14T15:30:06;6.70;;;3.30;;
2538;SDS011;1280;49.760;9.664;2022-09-14T15:32:36;7.50;;;3.10;;
2538;SDS011;1280;49.760;9.664;2022-09-14T15:35:05;10.87;;;3.00;;
2538;SDS011;1280;49.760;9.664;2022-09-14T15:37:35;5.23;;;3.03;;
2538;SDS011;1280;49.760;9.664;2022-09-14T15:40:04;6.73;;;3.07;;
2538;SDS011;1280;49.760;9.664;2022-09-14T15:42:33;5.97;;;3.20;;
2538;SDS011;1280;49.760;9.664;2022-09-14T15:45:01;6.27;;;3.50;;